Time;durP1;ratioP1;P1;durP2;ratioP2;P2;SDS_P1;SDS_P2;PMS_P1;PMS_P2;Temp;Humidity;BMP_temperature;BMP_pressure;BME280_temperature;BME280_humidity;BME280_pressure;Samples;Min_cycle;Max_cycle;Signal;HPM_P1;HPM_P2
2021/05/17 00:00:23;;;;;;;0.43;0.30;;;8.60;1.40;;;9.24;100.00;94311.40;646920;216;32403;-72
2021/05/17 00:03:05;;;;;;;0.40;0.20;;;8.60;1.40;;;9.28;100.00;94316.13;618016;226;31864;-73
2021/05/17 00:05:47;;;;;;;1.70;0.40;;;8.70;1.40;;;9.51;100.00;94313.47;619222;222;31859;-73
2021/05/17 00:08:32;;;;;;;0.50;0.40;;;8.90;1.40;;;9.58;100.00;94320.24;645100;216;31463;-70
2021/05/17 00:11:14;;;;;;;1.00;0.30;;;9.00;1.40;;;9.69;100.00;94329.23;632072;221;32227;-70
2021/05/17 00:14:46;;;;;;;0.40;0.20;;;9.00;1.40;;;9.67;100.00;94321.84;613994;222;31987;-71
2021/05/17 00:17:28;;;;;;;0.40;0.20;;;9.00;1.40;;;9.59;100.00;94315.26;647025;212;31516;-73
2021/05/17 00:20:11;;;;;;;0.60;0.40;;;8.80;1.40;;;9.47;100.00;94322.78;645596;212;31477;-71
2021/05/17 00:22:52;;;;;;;0.60;0.40;;;8.70;1.40;;;9.49;100.00;94308.28;646255;216;31740;-70
2021/05/17 00:25:34;;;;;;;0.60;0.30;;;8.80;1.40;;;9.42;100.00;94305.98;646140;212;31513;-73
2021/05/17 00:28:16;;;;;;;0.80;0.30;;;8.70;1.40;;;9.35;100.00;94309.91;645755;213;31529;-72
2021/05/17 00:30:58;;;;;;;0.52;0.28;;;8.60;1.40;;;9.45;100.00;94318.77;645781;216;42414;-71
2021/05/17 00:35:51;;;;;;;0.70;0.30;;;8.60;1.40;;;9.40;100.00;94313.25;645456;216;31653;-73
2021/05/17 00:38:33;;;;;;;0.60;0.40;;;8.70;1.40;;;9.46;100.00;94316.55;647101;216;31579;-73
2021/05/17 00:41:15;;;;;;;0.52;0.40;;;8.70;1.40;;;9.54;100.00;94325.09;647051;212;31492;-72
2021/05/17 00:43:56;;;;;;;0.60;0.40;;;8.90;1.40;;;9.58;100.00;94326.97;617211;226;31904;-73
2021/05/17 00:46:38;;;;;;;1.20;0.40;;;8.90;1.40;;;9.62;100.00;94333.05;646498;216;31503;-73
2021/05/17 00:49:20;;;;;;;1.50;0.75;;;8.90;1.40;;;9.62;100.00;94334.07;647614;212;43726;-72
2021/05/17 00:52:01;;;;;;;0.65;0.30;;;8.80;1.40;;;9.61;100.00;94332.63;648046;212;31554;-72
2021/05/17 00:54:44;;;;;;;1.20;0.47;;;8.80;1.40;;;9.54;100.00;94331.49;646781;212;31565;-71
2021/05/17 00:57:25;;;;;;;0.57;0.40;;;8.80;1.40;;;9.57;100.00;94328.41;647305;216;31529;-70
2021/05/17 01:00:09;;;;;;;0.80;0.60;;;8.80;1.40;;;9.49;100.00;94334.86;646363;216;31670;-71
2021/05/17 01:02:51;;;;;;;1.10;0.60;;;8.70;1.40;;;9.42;100.00;94336.33;646405;216;31539;-73
2021/05/17 01:05:32;;;;;;;0.80;0.40;;;8.60;1.40;;;9.38;100.00;94344.78;646725;216;31539;-71
2021/05/17 01:08:14;;;;;;;0.70;0.50;;;8.60;1.40;;;9.28;100.00;94346.06;619235;226;32013;-71
2021/05/17 01:10:57;;;;;;;0.60;0.45;;;8.50;1.40;;;9.31;100.00;94351.75;646809;213;31896;-73
2021/05/17 01:13:37;;;;;;;0.60;0.60;;;8.60;1.40;;;9.33;100.00;94351.02;617658;222;35907;-70
2021/05/17 01:16:22;;;;;;;1.17;0.50;;;8.50;1.40;;;9.19;100.00;94352.08;646072;212;31547;-73
2021/05/17 01:19:05;;;;;;;0.70;0.57;;;8.40;1.40;;;9.27;100.00;94360.58;647348;212;31725;-72
2021/05/17 01:21:52;;;;;;;1.00;0.70;;;8.50;1.40;;;9.33;100.00;94357.59;646197;216;31489;-73
2021/05/17 01:24:32;;;;;;;1.00;0.50;;;8.70;1.40;;;9.49;100.00;94364.68;647169;212;31497;-73
2021/05/17 01:27:13;;;;;;;0.80;0.80;;;8.80;1.40;;;9.47;100.00;94372.57;646542;212;31482;-70
2021/05/17 01:29:55;;;;;;;1.20;0.50;;;8.80;1.40;;;9.50;100.00;94365.95;644866;216;31817;-72
2021/05/17 01:32:37;;;;;;;0.90;0.60;;;8.80;1.40;;;9.63;100.00;94368.72;646155;216;31585;-73
2021/05/17 01:35:52;;;;;;;1.00;0.60;;;8.90;1.40;;;9.67;100.00;94370.51;645811;216;34488;-71
2021/05/17 01:38:33;;;;;;;1.20;0.60;;;9.10;1.40;;;9.79;100.00;94369.70;647024;216;31738;-72
2021/05/17 01:41:15;;;;;;;1.55;0.50;;;9.10;1.40;;;9.70;100.00;94366.30;646414;216;31633;-72
2021/05/17 01:43:59;;;;;;;3.85;1.05;;;9.00;1.40;;;9.75;100.00;94370.53;646319;216;42320;-71
2021/05/17 01:46:43;;;;;;;1.10;0.60;;;9.00;1.40;;;9.79;100.00;94366.89;644788;216;31612;-72
2021/05/17 01:49:25;;;;;;;3.90;0.80;;;9.10;1.40;;;9.73;100.00;94368.95;646870;216;31968;-72
2021/05/17 01:52:07;;;;;;;1.15;0.70;;;9.00;1.40;;;9.78;100.00;94379.67;645392;212;32032;-73
2021/05/17 01:54:49;;;;;;;1.80;0.80;;;9.10;1.40;;;9.76;100.00;94366.56;619223;226;31866;-71
2021/05/17 01:57:34;;;;;;;2.20;0.80;;;9.00;1.40;;;9.77;100.00;94360.20;645852;212;31498;-73
2021/05/17 02:00:17;;;;;;;2.30;0.70;;;9.00;1.40;;;9.72;100.00;94357.93;646903;216;31551;-73
2021/05/17 02:02:59;;;;;;;1.00;0.50;;;9.00;1.40;;;9.77;100.00;94364.59;646517;212;31704;-71
2021/05/17 02:05:41;;;;;;;0.80;0.60;;;9.10;1.40;;;9.72;100.00;94365.03;647571;216;32132;-70
2021/05/17 02:08:22;;;;;;;1.15;0.60;;;9.00;1.40;;;9.66;100.00;94365.38;646655;216;42650;-73
2021/05/17 02:11:04;;;;;;;1.12;0.82;;;8.90;1.40;;;9.58;100.00;94360.51;646931;216;32193;-73
2021/05/17 02:13:45;;;;;;;2.10;0.73;;;8.90;1.40;;;9.61;100.00;94372.90;643503;212;31651;-70
2021/05/17 02:16:30;;;;;;;1.77;0.73;;;8.80;1.40;;;9.52;100.00;94361.86;645172;216;31709;-70
2021/05/17 02:19:12;;;;;;;1.00;0.50;;;8.80;1.40;;;9.50;100.00;94362.15;645865;216;42369;-72
2021/05/17 02:21:54;;;;;;;1.50;0.50;;;8.80;1.40;;;9.50;100.00;94365.23;646757;212;31519;-70
2021/05/17 02:24:39;;;;;;;0.70;0.50;;;8.80;1.40;;;9.50;100.00;94374.33;647613;216;31571;-73
2021/05/17 02:27:21;;;;;;;2.00;0.50;;;8.80;1.40;;;9.47;100.00;94369.70;646013;216;31597;-73
2021/05/17 02:30:03;;;;;;;0.73;0.50;;;8.80;1.40;;;9.41;100.00;94369.63;646301;216;31513;-71
2021/05/17 02:32:45;;;;;;;0.57;0.50;;;8.70;1.40;;;9.33;100.00;94377.16;645548;216;31490;-73
2021/05/17 02:35:51;;;;;;;0.60;0.40;;;8.70;1.40;;;9.35;100.00;94379.38;647980;216;31564;-71
2021/05/17 02:38:35;;;;;;;0.80;0.50;;;8.60;1.40;;;9.37;100.00;94377.14;645864;216;43539;-71
2021/05/17 02:41:17;;;;;;;1.00;0.47;;;8.60;1.40;;;9.35;100.00;94387.05;646929;216;32061;-74
2021/05/17 02:43:59;;;;;;;0.60;0.40;;;8.60;1.40;;;9.45;99.83;94380.12;648005;216;42807;-71
2021/05/17 02:46:41;;;;;;;1.20;0.47;;;8.80;1.40;;;9.40;99.65;94395.30;645978;216;31934;-74
2021/05/17 02:49:24;;;;;;;0.80;0.30;;;8.70;1.40;;;9.46;98.53;94394.84;647114;212;33260;-73
2021/05/17 02:52:05;;;;;;;1.00;0.40;;;8.70;1.40;;;9.43;98.60;94390.35;647096;216;31502;-73
2021/05/17 02:55:07;;;;;;;0.50;0.30;;;8.70;1.40;;;9.44;98.46;94387.22;618118;222;42731;-74
2021/05/17 02:57:50;;;;;;;0.90;0.40;;;8.70;1.40;;;9.37;99.69;94392.32;646582;216;31561;-72
2021/05/17 03:00:35;;;;;;;0.70;0.40;;;8.70;1.40;;;9.46;98.06;94398.48;646715;212;31483;-71
2021/05/17 03:03:24;;;;;;;1.20;0.30;;;8.80;1.40;;;9.43;98.56;94408.97;646612;212;42223;-73
2021/05/17 03:06:05;;;;;;;0.70;0.40;;;8.70;1.40;;;9.39;99.33;94404.16;647182;216;42122;-72
2021/05/17 03:08:53;;;;;;;0.70;0.40;;;8.70;1.40;;;9.33;100.00;94400.11;646640;216;31539;-72
2021/05/17 03:11:37;;;;;;;0.60;0.40;;;8.70;1.40;;;9.43;99.55;94412.27;645650;212;31557;-71
2021/05/17 03:14:18;;;;;;;1.50;0.40;;;8.70;1.40;;;9.38;99.10;94421.34;640528;212;42856;-71
2021/05/17 03:17:03;;;;;;;0.70;0.40;;;8.70;1.40;;;9.44;97.64;94414.11;648038;216;31506;-71
2021/05/17 03:19:45;;;;;;;0.80;0.47;;;8.70;1.40;;;9.35;99.39;94411.92;645251;212;31521;-73
2021/05/17 03:22:27;;;;;;;0.45;0.30;;;8.60;1.40;;;9.37;98.25;94414.23;646438;216;42113;-70
2021/05/17 03:25:09;;;;;;;1.90;0.50;;;8.70;1.40;;;9.44;97.47;94410.22;619633;226;42472;-73
2021/05/17 03:27:51;;;;;;;0.60;0.40;;;8.70;1.40;;;9.36;99.21;94417.09;647875;212;42110;-71
2021/05/17 03:30:32;;;;;;;0.62;0.30;;;8.60;1.40;;;9.31;99.62;94416.02;631140;220;42323;-71
2021/05/17 03:35:51;;;;;;;0.90;0.40;;;8.60;1.40;;;9.31;99.39;94413.53;641656;216;41971;-73
2021/05/17 03:38:33;;;;;;;0.70;0.50;;;8.60;1.40;;;9.33;98.66;94417.31;647355;212;42390;-73
2021/05/17 03:41:15;;;;;;;0.77;0.40;;;8.60;1.40;;;9.29;99.45;94412.66;646920;213;31497;-73
2021/05/17 03:43:57;;;;;;;1.00;0.40;;;8.50;1.40;;;9.34;97.99;94418.19;618892;226;31888;-71
2021/05/17 03:46:38;;;;;;;0.62;0.40;;;8.60;1.40;;;9.28;99.96;94419.66;645559;216;31704;-73
2021/05/17 03:49:20;;;;;;;0.90;0.50;;;8.50;1.40;;;9.29;98.75;94422.60;645222;212;31519;-72
2021/05/17 03:52:02;;;;;;;1.10;0.50;;;8.60;1.40;;;9.23;99.45;94421.11;647995;216;42147;-72
2021/05/17 03:54:44;;;;;;;1.50;0.40;;;8.50;1.40;;;9.22;99.44;94424.98;619268;226;32221;-71
2021/05/17 03:57:25;;;;;;;2.50;0.50;;;8.50;1.40;;;9.27;98.68;94419.16;618457;222;32027;-72
2021/05/17 04:00:09;;;;;;;1.80;0.60;;;8.50;1.40;;;9.22;98.67;94430.30;647317;212;42798;-74
2021/05/17 04:02:50;;;;;;;0.70;0.40;;;8.50;1.40;;;9.23;98.64;94430.97;645456;216;31648;-72
2021/05/17 04:05:39;;;;;;;1.35;0.50;;;8.50;1.40;;;9.18;98.57;94436.77;646166;213;42570;-73
2021/05/17 04:12:31;;;;;;;0.75;0.50;;;8.50;1.40;;;9.06;99.86;94435.77;647605;212;31621;-73
2021/05/17 04:14:10;;;;;;;2.10;0.80;;;8.40;1.40;;;9.08;98.95;94439.76;641122;216;31742;-77
2021/05/17 04:16:58;;;;;;;2.47;0.62;;;8.40;1.40;;;9.06;98.83;94437.12;646558;212;42114;-72
2021/05/17 04:19:40;;;;;;;1.37;0.60;;;8.30;1.40;;;8.96;99.61;94446.84;646110;216;31547;-72
2021/05/17 04:22:21;;;;;;;0.90;0.60;;;8.30;1.40;;;8.96;98.74;94440.84;646678;216;42167;-72
2021/05/17 04:25:03;;;;;;;1.65;0.70;;;8.30;1.40;;;8.94;98.78;94449.30;646848;212;31617;-71
2021/05/17 04:27:45;;;;;;;3.37;1.30;;;8.20;1.40;;;8.89;98.57;94445.00;647380;216;42239;-73
2021/05/17 04:30:27;;;;;;;0.90;0.65;;;8.30;1.40;;;8.95;97.67;94439.52;646414;216;31634;-72
2021/05/17 04:35:51;;;;;;;2.70;0.70;;;8.20;1.40;;;8.87;97.90;94444.63;645715;212;31568;-72
2021/05/17 04:38:32;;;;;;;1.70;0.80;;;8.20;1.40;;;8.90;98.32;94447.29;646466;212;32169;-72
2021/05/17 04:41:15;;;;;;;2.97;0.90;;;8.30;1.40;;;9.06;97.33;94452.92;645927;212;31512;-72
2021/05/17 04:43:57;;;;;;;2.30;0.75;;;8.40;1.40;;;9.14;95.95;94449.16;645164;212;31576;-73
2021/05/17 04:46:38;;;;;;;3.12;0.80;;;8.50;1.40;;;9.10;96.70;94453.42;645766;216;42169;-73
2021/05/17 04:49:20;;;;;;;2.50;0.80;;;8.40;1.40;;;9.09;95.64;94452.31;646587;212;31621;-71
2021/05/17 04:52:02;;;;;;;1.80;0.70;;;8.40;1.40;;;9.02;96.90;94448.67;645577;212;31549;-72
2021/05/17 04:54:47;;;;;;;2.40;1.00;;;8.30;1.40;;;8.98;96.54;94452.69;619219;225;43244;-73
2021/05/17 04:57:28;;;;;;;2.85;1.00;;;8.30;1.40;;;8.98;95.99;94458.68;646952;212;31559;-71
2021/05/17 05:00:16;;;;;;;1.95;1.02;;;8.30;1.40;;;8.98;95.48;94463.55;647142;213;42244;-71
2021/05/17 05:03:04;;;;;;;1.65;0.80;;;8.30;1.40;;;8.99;95.63;94467.51;647108;216;31574;-72
2021/05/17 05:05:47;;;;;;;3.12;1.20;;;8.30;1.40;;;9.02;94.98;94479.05;646470;216;31548;-73
2021/05/17 05:08:29;;;;;;;3.97;1.20;;;8.30;1.40;;;8.98;94.97;94480.14;647212;216;31658;-73
2021/05/17 05:11:13;;;;;;;3.58;1.05;;;8.30;1.40;;;8.98;95.14;94478.03;631938;221;31970;-73
2021/05/17 05:14:00;;;;;;;1.58;0.73;;;8.30;1.40;;;8.98;95.43;94483.06;643226;216;43252;-72
2021/05/17 05:16:42;;;;;;;4.10;1.00;;;8.20;1.40;;;9.01;94.94;94482.02;647166;212;42897;-74
2021/05/17 05:19:24;;;;;;;4.95;1.27;;;8.30;1.40;;;9.00;95.04;94481.48;646944;212;42142;-71
2021/05/17 05:22:12;;;;;;;2.15;0.80;;;8.30;1.40;;;9.02;95.04;94492.19;646235;216;42164;-72
2021/05/17 05:24:56;;;;;;;3.50;1.40;;;8.30;1.40;;;9.22;93.85;94485.38;646752;212;31666;-72
2021/05/17 05:27:43;;;;;;;2.72;1.10;;;8.40;1.40;;;9.25;93.56;94487.59;646775;212;42628;-70
2021/05/17 05:30:28;;;;;;;3.67;1.02;;;8.50;1.40;;;9.35;93.43;94492.38;646709;216;42637;-73
2021/05/17 05:35:51;;;;;;;5.80;1.30;;;8.70;1.40;;;9.58;92.89;94489.65;646131;212;32076;-73
2021/05/17 05:38:33;;;;;;;3.83;1.02;;;8.80;1.40;;;9.71;90.38;94491.60;617040;222;32300;-73
2021/05/17 05:41:14;;;;;;;2.12;0.90;;;9.00;1.40;;;9.81;89.29;94488.90;646554;216;42165;-71
2021/05/17 05:44:02;;;;;;;2.25;1.10;;;9.10;1.40;;;9.92;87.72;94489.46;619513;225;31871;-73
2021/05/17 05:46:50;;;;;;;3.27;1.40;;;9.20;1.40;;;10.02;88.33;94494.89;646102;216;32335;-72
2021/05/17 05:49:38;;;;;;;2.85;1.00;;;9.20;1.40;;;10.13;88.09;94498.04;646258;212;31594;-71
2021/05/17 05:52:22;;;;;;;2.30;0.85;;;9.30;1.40;;;10.07;87.52;94509.30;646053;212;42168;-72
2021/05/17 05:55:08;;;;;;;3.40;1.10;;;9.30;1.40;;;10.08;88.68;94506.72;618501;225;32211;-73
2021/05/17 05:57:49;;;;;;;3.30;1.20;;;9.30;1.40;;;9.96;90.67;94509.61;618711;226;31877;-73
2021/05/17 06:00:37;;;;;;;3.83;1.02;;;9.20;1.40;;;9.81;92.10;94503.98;646173;212;31591;-72
2021/05/17 06:03:21;;;;;;;2.63;1.30;;;9.20;1.40;;;9.73;92.80;94512.30;648226;212;31588;-73
2021/05/17 06:06:08;;;;;;;5.53;1.30;;;9.10;1.40;;;9.78;95.00;94509.80;615330;226;32627;-72
2021/05/17 06:08:56;;;;;;;3.30;1.00;;;9.20;1.40;;;9.85;94.70;94513.70;645408;216;31683;-71
2021/05/17 06:11:38;;;;;;;1.65;0.90;;;9.30;1.40;;;9.97;93.38;94525.08;619359;226;32077;-73
2021/05/17 06:14:24;;;;;;;3.20;1.48;;;9.40;1.40;;;10.12;93.47;94522.42;639743;212;31741;-71
2021/05/17 06:17:05;;;;;;;2.13;1.00;;;9.40;1.40;;;10.14;93.66;94527.70;646805;212;31563;-72
2021/05/17 06:19:47;;;;;;;3.15;1.00;;;9.50;1.40;;;10.21;91.15;94526.13;647872;212;31586;-72
2021/05/17 06:22:30;;;;;;;2.70;1.00;;;9.60;1.40;;;10.19;89.31;94531.81;646240;216;32046;-73
2021/05/17 06:25:12;;;;;;;3.80;1.10;;;9.50;1.40;;;10.24;90.19;94542.62;619115;222;31922;-74
2021/05/17 06:27:53;;;;;;;2.40;1.10;;;9.50;1.40;;;10.14;89.64;94539.78;648771;216;32780;-73
2021/05/17 06:30:44;;;;;;;3.20;1.20;;;9.50;1.40;;;10.21;92.29;94538.22;646866;216;31501;-71
2021/05/17 06:35:54;;;;;;;3.22;1.12;;;9.60;1.40;;;10.39;90.68;94551.33;648490;216;31569;-72
2021/05/17 06:38:37;;;;;;;2.65;1.15;;;9.70;1.40;;;10.37;87.82;94544.67;646706;216;31571;-72
2021/05/17 06:41:17;;;;;;;2.80;1.10;;;9.70;1.40;;;10.52;87.50;94545.13;646382;212;31574;-72
2021/05/17 06:44:06;;;;;;;3.20;1.08;;;9.80;1.40;;;10.71;86.76;94548.91;646067;216;31787;-71
2021/05/17 06:46:50;;;;;;;2.80;0.80;;;9.90;1.40;;;10.64;85.79;94557.79;647400;216;42470;-71
2021/05/17 06:49:31;;;;;;;4.00;1.10;;;9.80;1.40;;;10.56;85.27;94560.48;646321;212;31559;-72
2021/05/17 06:52:15;;;;;;;2.13;1.10;;;9.80;1.40;;;10.58;86.42;94552.91;643279;216;31976;-73
2021/05/17 06:55:01;;;;;;;2.10;0.80;;;9.90;1.40;;;10.66;86.26;94557.91;644177;212;31658;-73
2021/05/17 06:57:52;;;;;;;1.85;0.90;;;9.80;1.40;;;10.59;86.93;94560.16;646149;212;42168;-74
2021/05/17 07:00:29;;;;;;;1.83;0.80;;;9.90;1.40;;;10.64;87.43;94562.46;646468;216;31529;-71
2021/05/17 07:03:08;;;;;;;3.40;1.10;;;9.90;1.40;;;10.66;88.89;94563.03;646976;216;31546;-70
2021/05/17 07:05:51;;;;;;;4.63;1.60;;;9.90;1.40;;;10.55;85.92;94563.59;645905;212;32356;-73
2021/05/17 07:11:37;;;;;;;3.00;0.80;;;9.80;1.40;;;10.55;87.03;94565.66;645616;212;31642;-71
2021/05/17 07:14:19;;;;;;;2.50;1.00;;;9.80;1.40;;;10.46;88.17;94561.48;641848;212;31744;-71
2021/05/17 07:17:07;;;;;;;2.35;0.90;;;9.80;1.40;;;10.52;89.75;94572.97;646515;216;32161;-71
2021/05/17 07:19:49;;;;;;;5.10;1.20;;;9.90;1.40;;;10.46;88.62;94573.42;646955;212;31552;-72
2021/05/17 07:25:26;;;;;;;2.50;1.20;;;9.90;1.40;;;10.54;89.55;94573.57;645549;216;31576;-72
2021/05/17 07:28:13;;;;;;;4.10;1.10;;;9.80;1.40;;;10.45;88.53;94575.84;644878;212;31577;-72
2021/05/17 07:31:04;;;;;;;2.17;0.80;;;9.80;1.40;;;10.61;89.18;94573.02;646071;216;31503;-72
2021/05/17 07:35:51;;;;;;;2.28;0.90;;;10.10;1.40;;;10.71;89.36;94574.83;646203;216;31565;-70
2021/05/17 07:38:33;;;;;;;1.90;0.90;;;10.00;1.40;;;10.64;88.84;94578.86;632531;222;31745;-71
2021/05/17 07:41:15;;;;;;;2.90;0.80;;;10.00;1.40;;;10.73;88.75;94577.71;617461;226;32547;-71
2021/05/17 07:44:02;;;;;;;1.43;0.70;;;10.30;1.40;;;11.12;87.96;94571.71;647167;216;31589;-72
2021/05/17 07:46:44;;;;;;;3.60;0.73;;;10.60;1.40;;;11.41;83.70;94573.91;647040;213;31629;-71
2021/05/17 07:52:20;;;;;;;1.27;0.60;;;10.90;1.40;;;11.45;80.80;94585.24;619468;222;32000;-73
2021/05/17 07:55:09;;;;;;;2.10;0.90;;;10.70;1.40;;;11.36;81.50;94580.63;646339;216;31706;-71
2021/05/17 07:57:52;;;;;;;3.00;0.80;;;10.60;1.40;;;11.25;82.73;94578.08;646551;216;32156;-70
2021/05/17 08:00:34;;;;;;;3.85;0.75;;;10.40;1.40;;;11.11;84.31;94583.58;648423;216;42137;-73
2021/05/17 08:03:19;;;;;;;1.10;0.70;;;10.30;1.40;;;10.84;85.12;94576.41;648181;216;32094;-73
2021/05/17 08:06:02;;;;;;;2.70;0.70;;;10.20;1.40;;;10.58;87.37;94578.89;647957;216;31594;-72
2021/05/17 08:08:45;;;;;;;2.33;0.60;;;10.00;1.40;;;10.30;88.09;94591.17;647592;212;31748;-72
2021/05/17 08:11:30;;;;;;;0.98;0.40;;;9.80;1.40;;;10.30;89.46;94577.80;620025;226;31826;-74
2021/05/17 08:14:20;;;;;;;1.10;0.60;;;9.90;1.40;;;10.55;88.82;94581.06;640747;216;32001;-70
2021/05/17 08:17:03;;;;;;;2.50;0.62;;;10.20;1.40;;;10.63;87.84;94580.80;646500;212;31843;-70
2021/05/17 08:19:44;;;;;;;1.08;0.62;;;10.30;1.40;;;10.80;87.76;94586.72;647574;212;31495;-71
2021/05/17 08:22:29;;;;;;;1.90;0.90;;;10.50;1.40;;;10.89;86.92;94590.73;646559;212;31598;-70
2021/05/17 08:25:11;;;;;;;1.07;0.50;;;10.50;1.40;;;10.98;84.76;94586.91;646317;216;31553;-70
2021/05/17 08:27:55;;;;;;;0.70;0.50;;;10.50;1.40;;;11.19;84.32;94588.82;647270;216;31502;-71
2021/05/17 08:30:46;;;;;;;1.10;0.50;;;10.50;1.40;;;11.27;80.80;94594.88;646293;216;31517;-73
2021/05/17 08:35:51;;;;;;;1.17;0.60;;;10.50;1.40;;;11.22;80.63;94594.76;647981;212;31526;-72
2021/05/17 08:38:33;;;;;;;0.80;0.50;;;10.50;1.40;;;11.26;80.28;94593.12;646578;212;31480;-70
2021/05/17 08:41:18;;;;;;;1.77;0.40;;;10.60;1.40;;;11.50;78.56;94591.50;647500;212;31564;-72
2021/05/17 08:43:59;;;;;;;0.60;0.30;;;10.80;1.40;;;11.90;79.95;94590.39;646256;216;31502;-71
2021/05/17 08:46:46;;;;;;;1.50;0.50;;;11.50;1.40;;;12.53;77.49;94589.34;646472;212;31480;-73
2021/05/17 08:49:23;;;;;;;0.90;0.53;;;11.90;1.40;;;12.95;76.40;94598.56;646838;212;31533;-71
2021/05/17 08:52:07;;;;;;;1.47;0.50;;;11.90;1.40;;;12.72;73.98;94596.33;647123;213;31474;-72
2021/05/17 08:54:49;;;;;;;1.00;0.40;;;11.70;1.40;;;12.75;74.36;94594.12;647090;216;31524;-71
2021/05/17 08:57:37;;;;;;;0.90;0.30;;;12.10;1.40;;;13.23;73.03;94603.41;645397;216;31508;-71
2021/05/17 09:00:20;;;;;;;1.53;0.50;;;12.30;1.40;;;13.30;70.74;94604.81;644943;216;31531;-73
2021/05/17 09:03:01;;;;;;;1.40;0.60;;;12.00;1.40;;;13.39;73.45;94599.20;645882;216;31536;-71
2021/05/17 09:05:48;;;;;;;1.60;0.30;;;12.70;1.40;;;13.31;71.59;94595.55;645778;216;31587;-71
2021/05/17 09:08:30;;;;;;;0.75;0.30;;;12.50;1.40;;;13.19;72.29;94599.59;645551;212;31523;-71
2021/05/17 09:13:49;;;;;;;1.30;0.40;;;12.10;1.40;;;13.02;74.14;94597.72;644017;216;42316;-70
2021/05/17 09:16:44;;;;;;;0.90;0.30;;;12.10;1.40;;;12.65;72.49;94596.19;646347;212;33206;-71
2021/05/17 09:22:23;;;;;;;1.02;0.50;;;12.80;1.40;;;14.16;69.23;94591.19;646703;216;31486;-72
2021/05/17 09:25:07;;;;;;;1.50;0.33;;;14.50;1.40;;;14.29;65.22;94584.77;646486;216;31569;-71
2021/05/17 09:27:48;;;;;;;0.80;0.40;;;13.50;1.40;;;13.86;66.75;94602.80;647002;212;31544;-70
2021/05/17 09:30:42;;;;;;;1.30;0.60;;;13.70;1.40;;;13.88;64.19;94601.18;618028;222;31841;-71
2021/05/17 09:35:51;;;;;;;2.40;0.45;;;12.20;1.40;;;13.24;68.49;94605.14;645496;212;31547;-71
2021/05/17 09:38:36;;;;;;;0.80;0.40;;;12.60;1.40;;;13.68;68.56;94603.73;616719;224;32545;-70
2021/05/17 09:41:18;;;;;;;1.60;0.60;;;12.80;1.40;;;13.25;69.77;94616.53;646125;212;31490;-73
2021/05/17 09:44:00;;;;;;;0.80;0.30;;;12.30;1.40;;;12.71;69.53;94610.56;647035;212;42115;-71
2021/05/17 09:46:54;;;;;;;1.10;0.30;;;11.80;1.40;;;12.53;71.10;94612.75;645871;216;31524;-71
2021/05/17 09:49:55;;;;;;;1.30;0.47;;;11.70;1.40;;;12.39;71.09;94614.73;646893;216;31572;-71
2021/05/17 09:52:37;;;;;;;1.70;0.50;;;11.50;1.40;;;12.09;71.68;94619.33;646287;216;31530;-73
2021/05/17 09:55:16;;;;;;;1.60;0.73;;;11.30;1.40;;;12.30;74.52;94613.21;645932;216;31520;-71
2021/05/17 09:58:04;;;;;;;1.00;0.60;;;11.60;1.40;;;12.36;74.17;94612.06;647328;216;31543;-70
2021/05/17 10:00:49;;;;;;;1.00;0.60;;;11.70;1.40;;;13.03;71.46;94617.53;646410;216;31483;-73
2021/05/17 10:03:33;;;;;;;1.17;0.70;;;12.70;1.40;;;13.68;68.83;94618.97;645359;212;31506;-72
2021/05/17 10:06:18;;;;;;;1.80;0.40;;;13.10;1.40;;;14.43;65.16;94623.98;646771;212;31704;-71
2021/05/17 10:09:01;;;;;;;1.83;0.50;;;14.00;1.40;;;15.26;63.30;94618.25;646357;216;31587;-73
2021/05/17 10:11:49;;;;;;;1.10;0.70;;;15.00;1.40;;;14.56;63.51;94595.94;646709;216;31475;-70
2021/05/17 10:14:34;;;;;;;1.65;0.52;;;13.30;1.40;;;14.95;64.56;94594.13;638718;212;31651;-73
2021/05/17 10:17:16;;;;;;;2.33;0.40;;;14.00;1.40;;;14.48;64.33;94596.78;645419;212;31700;-71
2021/05/17 10:19:57;;;;;;;1.50;0.70;;;13.90;1.40;;;14.54;65.08;94606.33;646379;212;32171;-71
2021/05/17 10:23:21;;;;;;;1.70;0.50;;;13.70;1.40;;;15.12;63.87;94599.83;646766;216;31455;-74
2021/05/17 10:26:12;;;;;;;1.02;0.70;;;15.10;1.40;;;14.36;64.03;94596.19;645884;216;42188;-71
2021/05/17 10:28:56;;;;;;;1.37;0.50;;;13.20;1.40;;;13.99;66.92;94605.92;646958;212;39450;-71
2021/05/17 10:31:52;;;;;;;1.62;0.50;;;12.90;1.40;;;13.69;65.89;94606.77;646637;216;31608;-73
2021/05/17 10:35:51;;;;;;;1.20;0.70;;;12.90;1.40;;;13.78;64.65;94603.91;646868;216;31532;-71
2021/05/17 10:38:43;;;;;;;1.00;0.50;;;12.80;1.40;;;14.20;65.33;94609.55;646045;214;33475;-71
2021/05/17 10:41:38;;;;;;;2.30;0.60;;;12.90;1.40;;;14.76;65.28;94604.15;646451;212;31547;-72
2021/05/17 10:44:37;;;;;;;0.90;0.50;;;13.60;1.40;;;14.67;64.40;94600.25;646472;216;31636;-71
2021/05/17 10:47:01;;;;;;;2.43;0.70;;;13.40;1.40;;;15.22;61.40;94594.30;647095;216;32132;-74
2021/05/17 10:52:23;;;;;;;1.20;0.40;;;14.50;1.40;;;16.75;58.98;94579.23;647476;216;42127;-71
2021/05/17 10:55:10;;;;;;;2.10;0.40;;;15.60;1.40;;;17.82;52.91;94603.77;619716;222;31866;-72
2021/05/17 10:58:16;;;;;;;0.88;0.40;;;15.60;1.40;;;16.84;56.84;94594.95;645389;216;31520;-71
2021/05/17 11:00:56;;;;;;;1.10;0.40;;;15.00;1.40;;;14.68;58.46;94597.68;647477;216;32149;-73
2021/05/17 11:03:43;;;;;;;0.82;0.40;;;13.30;1.40;;;14.05;61.93;94588.25;644894;216;31472;-71
2021/05/17 11:06:25;;;;;;;1.75;0.40;;;13.10;1.40;;;14.29;62.87;94592.45;646307;216;31457;-71
2021/05/17 11:09:06;;;;;;;2.80;0.50;;;13.50;1.40;;;16.12;59.62;94582.77;646954;216;37916;-73
2021/05/17 11:11:55;;;;;;;1.10;0.40;;;15.50;1.40;;;15.42;56.91;94610.05;646826;216;31491;-73
2021/05/17 11:14:42;;;;;;;1.55;0.30;;;13.90;1.40;;;15.73;57.92;94603.70;646475;216;42112;-71
2021/05/17 11:17:30;;;;;;;1.98;0.50;;;14.70;1.40;;;15.25;56.84;94616.12;619060;222;42480;-71
2021/05/17 11:20:31;;;;;;;1.62;0.50;;;13.80;1.40;;;14.19;58.91;94605.38;617944;225;32016;-71
2021/05/17 11:23:20;;;;;;;1.08;0.40;;;14.20;1.40;;;14.37;59.11;94612.76;620052;222;40789;-71
2021/05/17 11:26:02;;;;;;;0.70;0.60;;;13.10;1.40;;;13.09;62.38;94614.31;645986;216;31541;-71
2021/05/17 11:28:58;;;;;;;1.08;0.40;;;12.50;1.40;;;13.25;63.86;94619.55;647447;212;33085;-70
2021/05/17 11:31:42;;;;;;;0.70;0.32;;;12.80;1.40;;;13.55;61.72;94629.16;619572;226;32032;-73
2021/05/17 11:36:00;;;;;;;1.30;0.50;;;12.70;1.40;;;14.18;59.26;94616.78;645571;212;42727;-72
2021/05/17 11:38:59;;;;;;;0.70;0.40;;;13.50;1.40;;;14.04;58.38;94616.17;647155;212;31508;-71
2021/05/17 11:42:03;;;;;;;0.97;0.50;;;13.20;1.40;;;14.26;60.52;94609.58;647669;213;31474;-71
2021/05/17 11:44:53;;;;;;;1.48;0.40;;;13.30;1.40;;;13.76;60.38;94606.02;644902;216;31671;-70
2021/05/17 11:47:30;;;;;;;1.60;0.40;;;13.50;1.40;;;14.19;60.24;94608.57;646838;216;31512;-72
2021/05/17 11:50:16;;;;;;;0.77;0.40;;;13.80;1.40;;;14.42;59.43;94608.16;617923;226;32005;-73
2021/05/17 11:52:58;;;;;;;0.90;0.50;;;13.50;1.40;;;14.19;60.91;94606.00;648049;212;31537;-70
2021/05/17 11:55:46;;;;;;;0.80;0.37;;;13.40;1.40;;;15.64;57.98;94597.85;642682;214;42720;-71
2021/05/17 11:58:27;;;;;;;1.40;0.50;;;15.40;1.40;;;16.45;54.09;94599.14;646402;212;39149;-72
2021/05/17 12:01:19;;;;;;;1.08;0.60;;;15.20;1.40;;;16.72;53.92;94595.48;647810;212;31523;-70
2021/05/17 12:04:12;;;;;;;0.82;0.40;;;15.50;1.40;;;15.95;55.24;94585.18;646621;216;31455;-71
2021/05/17 12:06:57;;;;;;;1.25;0.40;;;14.50;1.40;;;16.55;54.57;94574.00;643819;216;31515;-73
2021/05/17 12:09:45;;;;;;;0.80;0.30;;;15.20;1.40;;;16.06;55.69;94585.12;647986;212;31547;-71
2021/05/17 12:12:27;;;;;;;1.12;0.50;;;15.20;1.40;;;15.07;55.75;94605.23;646863;216;31496;-72
2021/05/17 12:15:17;;;;;;;2.30;0.40;;;13.80;1.40;;;14.65;58.18;94596.28;646517;212;31487;-71
2021/05/17 12:18:01;;;;;;;0.62;0.30;;;14.00;1.40;;;16.53;54.04;94584.03;646011;216;31481;-71
2021/05/17 12:20:48;;;;;;;0.60;0.40;;;15.80;1.40;;;16.77;53.53;94580.70;644596;216;31908;-72
2021/05/17 12:23:30;;;;;;;0.75;0.40;;;15.60;1.40;;;17.21;52.62;94578.02;647870;212;31548;-72
2021/05/17 12:26:17;;;;;;;0.50;0.30;;;16.10;1.40;;;17.08;52.18;94584.45;646769;216;31575;-71
2021/05/17 12:29:02;;;;;;;1.30;0.40;;;15.70;1.40;;;15.48;53.61;94614.45;645924;212;42130;-71